sensor_id;sensor_type;location;lat;lon;timestamp;pressure;altitude;pressure_sealevel;temperature;humidity
6144;BME280;3103;49.492;8.474;2023-03-14T00:02:12;98718.38;;;11.19;97.42
6144;BME280;3103;49.492;8.474;2023-03-14T00:04:39;98734.91;;;11.07;97.73
6144;BME280;3103;49.492;8.474;2023-03-14T00:07:05;98720.34;;;11.13;97.34
6144;BME280;3103;49.492;8.474;2023-03-14T00:09:32;98724.06;;;11.17;97.42
6144;BME280;3103;49.492;8.474;2023-03-14T00:11:59;98727.25;;;11.19;96.96
6144;BME280;3103;49.492;8.474;2023-03-14T00:14:25;98720.84;;;11.15;97.43
6144;BME280;3103;49.492;8.474;2023-03-14T00:16:52;98713.91;;;11.09;97.84
6144;BME280;3103;49.492;8.474;2023-03-14T00:19:19;98718.97;;;11.16;97.58
6144;BME280;3103;49.492;8.474;2023-03-14T00:21:46;98717.31;;;11.20;97.19
6144;BME280;3103;49.492;8.474;2023-03-14T00:24:13;98715.19;;;11.17;96.84
6144;BME280;3103;49.492;8.474;2023-03-14T00:26:39;98717.38;;;11.15;97.00
6144;BME280;3103;49.492;8.474;2023-03-14T00:29:06;98721.31;;;11.22;96.42
6144;BME280;3103;49.492;8.474;2023-03-14T00:31:33;98701.69;;;11.22;96.49
6144;BME280;3103;49.492;8.474;2023-03-14T00:34:02;98714.69;;;11.15;96.44
6144;BME280;3103;49.492;8.474;2023-03-14T00:36:30;98715.75;;;11.14;96.63
6144;BME280;3103;49.492;8.474;2023-03-14T00:38:57;98705.56;;;11.11;96.64
6144;BME280;3103;49.492;8.474;2023-03-14T00:41:24;98700.66;;;11.18;96.37
6144;BME280;3103;49.492;8.474;2023-03-14T00:43:51;98694.50;;;11.17;96.31
6144;BME280;3103;49.492;8.474;2023-03-14T00:46:19;98684.81;;;11.16;96.04
6144;BME280;3103;49.492;8.474;2023-03-14T00:48:46;98678.94;;;11.14;95.75
6144;BME280;3103;49.492;8.474;2023-03-14T00:51:13;98679.59;;;11.25;96.23
6144;BME280;3103;49.492;8.474;2023-03-14T00:53:43;98681.84;;;11.18;95.43
6144;BME280;3103;49.492;8.474;2023-03-14T00:56:11;98693.34;;;11.23;94.95
6144;BME280;3103;49.492;8.474;2023-03-14T00:58:39;98695.56;;;11.16;95.96
6144;BME280;3103;49.492;8.474;2023-03-14T01:01:11;98697.69;;;11.19;96.01
6144;BME280;3103;49.492;8.474;2023-03-14T01:03:39;98705.53;;;11.16;96.18
6144;BME280;3103;49.492;8.474;2023-03-14T01:06:17;98701.91;;;11.25;95.41
6144;BME280;3103;49.492;8.474;2023-03-14T01:08:46;98708.44;;;11.19;96.79
6144;BME280;3103;49.492;8.474;2023-03-14T01:11:15;98718.16;;;11.15;96.32
6144;BME280;3103;49.492;8.474;2023-03-14T01:13:44;98696.66;;;11.15;97.01
6144;BME280;3103;49.492;8.474;2023-03-14T01:16:12;98705.53;;;11.16;97.72
6144;BME280;3103;49.492;8.474;2023-03-14T01:18:40;98687.28;;;11.13;97.74
6144;BME280;3103;49.492;8.474;2023-03-14T01:21:18;98699.06;;;11.17;98.74
6144;BME280;3103;49.492;8.474;2023-03-14T01:23:46;98692.41;;;11.09;98.74
6144;BME280;3103;49.492;8.474;2023-03-14T01:26:16;98692.88;;;11.16;98.82
6144;BME280;3103;49.492;8.474;2023-03-14T01:28:43;98692.69;;;11.08;98.63
6144;BME280;3103;49.492;8.474;2023-03-14T01:31:10;98680.03;;;11.13;98.86
6144;BME280;3103;49.492;8.474;2023-03-14T01:33:38;98670.09;;;11.09;99.06
6144;BME280;3103;49.492;8.474;2023-03-14T01:36:07;98676.84;;;11.06;99.18
6144;BME280;3103;49.492;8.474;2023-03-14T01:38:35;98673.56;;;11.14;99.18
6144;BME280;3103;49.492;8.474;2023-03-14T01:41:03;98667.03;;;11.20;98.40
6144;BME280;3103;49.492;8.474;2023-03-14T01:43:30;98660.16;;;11.09;98.85
6144;BME280;3103;49.492;8.474;2023-03-14T01:48:42;98657.97;;;11.11;99.53
6144;BME280;3103;49.492;8.474;2023-03-14T01:54:37;98639.75;;;11.08;100.00
6144;BME280;3103;49.492;8.474;2023-03-14T01:59:37;98632.84;;;11.02;99.94
6144;BME280;3103;49.492;8.474;2023-03-14T02:02:05;98615.56;;;11.08;100.00
6144;BME280;3103;49.492;8.474;2023-03-14T02:04:35;98611.84;;;11.04;100.00
6144;BME280;3103;49.492;8.474;2023-03-14T02:07:10;98607.56;;;11.03;100.00
6144;BME280;3103;49.492;8.474;2023-03-14T02:09:43;98603.28;;;11.02;100.00
6144;BME280;3103;49.492;8.474;2023-03-14T02:12:16;98610.84;;;11.00;99.84
6144;BME280;3103;49.492;8.474;2023-03-14T02:14:48;98595.00;;;10.98;99.79
6144;BME280;3103;49.492;8.474;2023-03-14T02:17:29;98590.28;;;11.09;99.06
6144;BME280;3103;49.492;8.474;2023-03-14T02:23:17;98595.16;;;11.07;99.29
6144;BME280;3103;49.492;8.474;2023-03-14T02:28:52;98594.19;;;10.98;98.01
6144;BME280;3103;49.492;8.474;2023-03-14T02:31:21;98578.13;;;10.93;96.30
6144;BME280;3103;49.492;8.474;2023-03-14T02:33:49;98588.25;;;11.01;96.14
6144;BME280;3103;49.492;8.474;2023-03-14T02:36:18;98580.81;;;10.93;95.13
6144;BME280;3103;49.492;8.474;2023-03-14T02:39:03;98571.53;;;11.04;95.19
6144;BME280;3103;49.492;8.474;2023-03-14T02:41:34;98558.91;;;11.05;94.82
6144;BME280;3103;49.492;8.474;2023-03-14T02:44:04;98563.56;;;10.99;94.38
6144;BME280;3103;49.492;8.474;2023-03-14T02:46:32;98571.03;;;11.02;94.53
6144;BME280;3103;49.492;8.474;2023-03-14T02:49:04;98555.53;;;10.94;94.99
6144;BME280;3103;49.492;8.474;2023-03-14T02:51:33;98565.25;;;10.90;95.55
6144;BME280;3103;49.492;8.474;2023-03-14T02:54:02;98561.84;;;10.84;95.62
6144;BME280;3103;49.492;8.474;2023-03-14T02:56:30;98555.72;;;10.79;96.17
6144;BME280;3103;49.492;8.474;2023-03-14T02:58:57;98560.78;;;10.80;95.89
6144;BME280;3103;49.492;8.474;2023-03-14T03:01:39;98560.41;;;10.92;95.47
6144;BME280;3103;49.492;8.474;2023-03-14T03:04:07;98555.81;;;10.92;93.38
6144;BME280;3103;49.492;8.474;2023-03-14T03:06:34;98542.09;;;10.94;93.03
6144;BME280;3103;49.492;8.474;2023-03-14T03:09:00;98544.34;;;10.87;93.67
6144;BME280;3103;49.492;8.474;2023-03-14T03:11:27;98534.97;;;10.84;93.66
6144;BME280;3103;49.492;8.474;2023-03-14T03:13:54;98548.63;;;10.88;93.41
6144;BME280;3103;49.492;8.474;2023-03-14T03:16:21;98547.59;;;10.84;93.13
6144;BME280;3103;49.492;8.474;2023-03-14T03:18:48;98531.25;;;10.80;93.33
6144;BME280;3103;49.492;8.474;2023-03-14T03:21:15;98532.69;;;10.73;93.65
6144;BME280;3103;49.492;8.474;2023-03-14T03:23:42;98519.19;;;10.78;93.61
6144;BME280;3103;49.492;8.474;2023-03-14T03:26:09;98506.34;;;10.75;93.59
6144;BME280;3103;49.492;8.474;2023-03-14T03:28:37;98496.69;;;10.74;94.18
6144;BME280;3103;49.492;8.474;2023-03-14T03:31:11;98498.78;;;10.77;94.03
6144;BME280;3103;49.492;8.474;2023-03-14T03:33:39;98493.34;;;10.82;93.03
6144;BME280;3103;49.492;8.474;2023-03-14T03:36:06;98483.19;;;10.79;93.00
6144;BME280;3103;49.492;8.474;2023-03-14T03:38:36;98484.78;;;10.80;92.59
6144;BME280;3103;49.492;8.474;2023-03-14T03:41:05;98491.72;;;10.86;91.53
6144;BME280;3103;49.492;8.474;2023-03-14T03:43:32;98479.28;;;10.90;91.82
6144;BME280;3103;49.492;8.474;2023-03-14T03:46:05;98467.06;;;10.79;91.95
6144;BME280;3103;49.492;8.474;2023-03-14T03:48:33;98454.72;;;10.78;92.26
6144;BME280;3103;49.492;8.474;2023-03-14T03:51:03;98466.25;;;10.78;92.16
6144;BME280;3103;49.492;8.474;2023-03-14T03:53:30;98464.16;;;10.75;91.86
6144;BME280;3103;49.492;8.474;2023-03-14T03:56:04;98474.31;;;10.78;91.36
6144;BME280;3103;49.492;8.474;2023-03-14T03:58:31;98471.94;;;10.77;91.29
6144;BME280;3103;49.492;8.474;2023-03-14T04:00:57;98462.78;;;10.78;91.46
6144;BME280;3103;49.492;8.474;2023-03-14T04:03:24;98475.91;;;10.79;91.75
6144;BME280;3103;49.492;8.474;2023-03-14T04:06:03;98479.69;;;10.78;92.71
6144;BME280;3103;49.492;8.474;2023-03-14T04:08:32;98498.50;;;10.78;91.67
6144;BME280;3103;49.492;8.474;2023-03-14T04:11:00;98486.63;;;10.84;92.10
6144;BME280;3103;49.492;8.474;2023-03-14T04:13:46;98478.91;;;10.78;91.16
6144;BME280;3103;49.492;8.474;2023-03-14T04:16:19;98465.84;;;10.71;91.55
6144;BME280;3103;49.492;8.474;2023-03-14T04:18:47;98475.34;;;10.82;90.93
6144;BME280;3103;49.492;8.474;2023-03-14T04:21:15;98463.88;;;10.77;91.56
6144;BME280;3103;49.492;8.474;2023-03-14T04:23:48;98475.63;;;10.81;91.03
6144;BME280;3103;49.492;8.474;2023-03-14T04:26:16;98464.88;;;10.81;90.34
6144;BME280;3103;49.492;8.474;2023-03-14T04:28:43;98462.28;;;10.76;90.33
6144;BME280;3103;49.492;8.474;2023-03-14T04:31:20;98452.16;;;10.67;91.05
6144;BME280;3103;49.492;8.474;2023-03-14T04:33:48;98452.91;;;10.73;92.01
6144;BME280;3103;49.492;8.474;2023-03-14T04:36:20;98449.63;;;10.57;92.00
6144;BME280;3103;49.492;8.474;2023-03-14T04:38:47;98450.63;;;10.61;92.59
6144;BME280;3103;49.492;8.474;2023-03-14T04:41:18;98452.53;;;10.61;92.60
6144;BME280;3103;49.492;8.474;2023-03-14T04:43:44;98453.09;;;10.58;92.48
6144;BME280;3103;49.492;8.474;2023-03-14T04:46:12;98449.53;;;10.62;92.04
6144;BME280;3103;49.492;8.474;2023-03-14T04:48:39;98442.66;;;10.56;92.51
6144;BME280;3103;49.492;8.474;2023-03-14T04:51:07;98436.31;;;10.47;92.32
6144;BME280;3103;49.492;8.474;2023-03-14T04:53:35;98436.03;;;10.49;92.79
6144;BME280;3103;49.492;8.474;2023-03-14T04:56:07;98431.97;;;10.51;91.94
6144;BME280;3103;49.492;8.474;2023-03-14T04:58:37;98441.84;;;10.56;91.69
6144;BME280;3103;49.492;8.474;2023-03-14T05:01:05;98445.59;;;10.55;90.46
6144;BME280;3103;49.492;8.474;2023-03-14T05:03:45;98441.19;;;10.64;89.70
6144;BME280;3103;49.492;8.474;2023-03-14T05:06:17;98435.31;;;10.62;89.17
6144;BME280;3103;49.492;8.474;2023-03-14T05:08:52;98439.69;;;10.58;88.52
6144;BME280;3103;49.492;8.474;2023-03-14T05:11:31;98429.66;;;10.63;88.13
6144;BME280;3103;49.492;8.474;2023-03-14T05:14:19;98418.75;;;10.55;88.49
6144;BME280;3103;49.492;8.474;2023-03-14T05:17:04;98423.63;;;10.53;88.09
6144;BME280;3103;49.492;8.474;2023-03-14T05:19:42;98423.28;;;10.59;88.45
6144;BME280;3103;49.492;8.474;2023-03-14T05:22:32;98416.03;;;10.60;88.59
6144;BME280;3103;49.492;8.474;2023-03-14T05:25:11;98431.44;;;10.73;87.64
6144;BME280;3103;49.492;8.474;2023-03-14T05:27:56;98427.34;;;10.57;87.99
6144;BME280;3103;49.492;8.474;2023-03-14T05:30:46;98424.69;;;10.52;88.56
6144;BME280;3103;49.492;8.474;2023-03-14T05:33:32;98427.34;;;10.57;87.79
6144;BME280;3103;49.492;8.474;2023-03-14T05:36:11;98438.50;;;10.64;87.34
6144;BME280;3103;49.492;8.474;2023-03-14T05:38:50;98430.25;;;10.60;86.42
6144;BME280;3103;49.492;8.474;2023-03-14T05:41:43;98433.44;;;10.62;85.48
6144;BME280;3103;49.492;8.474;2023-03-14T05:44:30;98418.72;;;10.60;85.80
6144;BME280;3103;49.492;8.474;2023-03-14T05:47:17;98432.50;;;10.72;85.15
6144;BME280;3103;49.492;8.474;2023-03-14T05:50:02;98430.34;;;10.74;83.95
6144;BME280;3103;49.492;8.474;2023-03-14T05:52:41;98431.19;;;10.69;83.92
6144;BME280;3103;49.492;8.474;2023-03-14T05:55:33;98425.53;;;10.71;84.38
6144;BME280;3103;49.492;8.474;2023-03-14T05:58:11;98427.34;;;10.76;83.97
6144;BME280;3103;49.492;8.474;2023-03-14T06:00:57;98426.13;;;10.87;83.40
6144;BME280;3103;49.492;8.474;2023-03-14T06:03:38;98425.75;;;10.75;84.23
6144;BME280;3103;49.492;8.474;2023-03-14T06:06:06;98429.47;;;10.79;83.96
6144;BME280;3103;49.492;8.474;2023-03-14T06:08:32;98416.78;;;10.84;84.17
6144;BME280;3103;49.492;8.474;2023-03-14T06:11:03;98414.94;;;10.80;83.15
6144;BME280;3103;49.492;8.474;2023-03-14T06:13:30;98420.59;;;10.78;83.67
6144;BME280;3103;49.492;8.474;2023-03-14T06:15:57;98414.09;;;10.84;82.95
6144;BME280;3103;49.492;8.474;2023-03-14T06:18:23;98405.28;;;10.97;82.79
6144;BME280;3103;49.492;8.474;2023-03-14T06:20:55;98417.41;;;10.95;82.11
6144;BME280;3103;49.492;8.474;2023-03-14T06:23:25;98421.09;;;10.80;82.13
6144;BME280;3103;49.492;8.474;2023-03-14T06:25:52;98408.97;;;10.83;82.84
6144;BME280;3103;49.492;8.474;2023-03-14T06:28:22;98408.13;;;10.87;82.05
6144;BME280;3103;49.492;8.474;2023-03-14T06:30:51;98414.50;;;10.73;82.39
6144;BME280;3103;49.492;8.474;2023-03-14T06:33:18;98417.13;;;10.78;82.34
6144;BME280;3103;49.492;8.474;2023-03-14T06:35:45;98415.66;;;10.66;83.12
6144;BME280;3103;49.492;8.474;2023-03-14T06:38:12;98421.25;;;10.70;83.38
6144;BME280;3103;49.492;8.474;2023-03-14T06:40:38;98408.84;;;10.74;83.25
6144;BME280;3103;49.492;8.474;2023-03-14T06:43:10;98424.16;;;10.74;82.71
6144;BME280;3103;49.492;8.474;2023-03-14T06:45:39;98419.88;;;10.73;83.39
6144;BME280;3103;49.492;8.474;2023-03-14T06:48:06;98414.72;;;10.76;84.50
6144;BME280;3103;49.492;8.474;2023-03-14T06:50:45;98420.38;;;10.93;83.55
6144;BME280;3103;49.492;8.474;2023-03-14T06:53:12;98411.25;;;10.94;83.38
6144;BME280;3103;49.492;8.474;2023-03-14T06:55:41;98407.75;;;10.94;82.86
6144;BME280;3103;49.492;8.474;2023-03-14T06:58:09;98406.28;;;10.83;82.62
6144;BME280;3103;49.492;8.474;2023-03-14T07:00:41;98414.59;;;10.86;83.38
6144;BME280;3103;49.492;8.474;2023-03-14T07:03:10;98420.38;;;10.93;82.68
6144;BME280;3103;49.492;8.474;2023-03-14T07:05:40;98430.56;;;10.96;81.93
6144;BME280;3103;49.492;8.474;2023-03-14T07:08:08;98413.28;;;11.03;81.65
6144;BME280;3103;49.492;8.474;2023-03-14T07:10:35;98413.28;;;11.03;81.97
6144;BME280;3103;49.492;8.474;2023-03-14T07:13:02;98422.22;;;10.98;82.66
6144;BME280;3103;49.492;8.474;2023-03-14T07:15:33;98423.44;;;11.06;81.92
6144;BME280;3103;49.492;8.474;2023-03-14T07:18:04;98429.31;;;11.08;81.30
6144;BME280;3103;49.492;8.474;2023-03-14T07:20:31;98420.91;;;11.14;81.35
6144;BME280;3103;49.492;8.474;2023-03-14T07:22:59;98434.34;;;11.14;81.08
6144;BME280;3103;49.492;8.474;2023-03-14T07:25:35;98430.88;;;11.14;81.06
6144;BME280;3103;49.492;8.474;2023-03-14T07:28:02;98437.59;;;11.11;80.09
6144;BME280;3103;49.492;8.474;2023-03-14T07:30:29;98433.97;;;11.02;80.47
6144;BME280;3103;49.492;8.474;2023-03-14T07:32:58;98450.25;;;11.11;79.63
6144;BME280;3103;49.492;8.474;2023-03-14T07:35:25;98441.22;;;11.20;80.75
6144;BME280;3103;49.492;8.474;2023-03-14T07:37:51;98445.16;;;11.28;79.40
6144;BME280;3103;49.492;8.474;2023-03-14T07:40:26;98449.66;;;11.33;79.43
6144;BME280;3103;49.492;8.474;2023-03-14T07:42:52;98442.91;;;11.35;79.21
6144;BME280;3103;49.492;8.474;2023-03-14T07:45:26;98445.22;;;11.23;79.13
6144;BME280;3103;49.492;8.474;2023-03-14T07:47:53;98449.38;;;11.15;79.62
6144;BME280;3103;49.492;8.474;2023-03-14T07:50:25;98442.63;;;11.18;79.46
6144;BME280;3103;49.492;8.474;2023-03-14T07:52:53;98443.50;;;11.13;79.31
6144;BME280;3103;49.492;8.474;2023-03-14T07:55:20;98443.25;;;11.10;79.12
6144;BME280;3103;49.492;8.474;2023-03-14T07:57:46;98442.91;;;11.16;79.67
6144;BME280;3103;49.492;8.474;2023-03-14T08:00:14;98432.00;;;11.08;78.88
6144;BME280;3103;49.492;8.474;2023-03-14T08:02:42;98430.69;;;11.24;78.79
6144;BME280;3103;49.492;8.474;2023-03-14T08:05:09;98428.94;;;11.33;78.49
6144;BME280;3103;49.492;8.474;2023-03-14T08:07:36;98432.13;;;11.35;79.49
6144;BME280;3103;49.492;8.474;2023-03-14T08:10:04;98436.25;;;11.14;79.96
6144;BME280;3103;49.492;8.474;2023-03-14T08:12:30;98442.19;;;11.29;80.13
6144;BME280;3103;49.492;8.474;2023-03-14T08:14:57;98434.31;;;11.33;80.16
6144;BME280;3103;49.492;8.474;2023-03-14T08:17:27;98428.00;;;11.43;78.81
6144;BME280;3103;49.492;8.474;2023-03-14T08:19:54;98426.31;;;11.47;78.90
6144;BME280;3103;49.492;8.474;2023-03-14T08:22:21;98431.22;;;11.58;79.06
6144;BME280;3103;49.492;8.474;2023-03-14T08:24:47;98419.88;;;11.62;78.52
6144;BME280;3103;49.492;8.474;2023-03-14T08:27:14;98426.56;;;11.64;78.64
6144;BME280;3103;49.492;8.474;2023-03-14T08:29:41;98432.03;;;11.59;79.05
6144;BME280;3103;49.492;8.474;2023-03-14T08:32:08;98435.31;;;11.56;78.71
6144;BME280;3103;49.492;8.474;2023-03-14T08:34:35;98444.38;;;11.60;79.15
6144;BME280;3103;49.492;8.474;2023-03-14T08:37:02;98438.31;;;11.68;77.87
6144;BME280;3103;49.492;8.474;2023-03-14T08:39:36;98444.38;;;11.60;79.01
6144;BME280;3103;49.492;8.474;2023-03-14T08:42:03;98447.56;;;11.62;78.43
6144;BME280;3103;49.492;8.474;2023-03-14T08:44:30;98446.38;;;11.68;77.77
6144;BME280;3103;49.492;8.474;2023-03-14T08:46:57;98451.50;;;11.51;77.87
6144;BME280;3103;49.492;8.474;2023-03-14T08:49:24;98461.81;;;11.63;77.57
6144;BME280;3103;49.492;8.474;2023-03-14T08:51:50;98456.00;;;11.74;76.82
6144;BME280;3103;49.492;8.474;2023-03-14T08:54:17;98465.75;;;11.70;77.06
6144;BME280;3103;49.492;8.474;2023-03-14T08:56:45;98464.16;;;11.69;76.68
6144;BME280;3103;49.492;8.474;2023-03-14T08:59:11;98467.13;;;11.86;76.40
6144;BME280;3103;49.492;8.474;2023-03-14T09:01:38;98474.03;;;11.74;76.14
6144;BME280;3103;49.492;8.474;2023-03-14T09:04:05;98473.53;;;11.72;76.36
6144;BME280;3103;49.492;8.474;2023-03-14T09:06:32;98470.59;;;11.68;76.61
6144;BME280;3103;49.492;8.474;2023-03-14T09:08:58;98471.34;;;11.74;76.11
6144;BME280;3103;49.492;8.474;2023-03-14T09:11:25;98464.50;;;11.81;75.64
6144;BME280;3103;49.492;8.474;2023-03-14T09:13:52;98474.63;;;11.71;76.20
6144;BME280;3103;49.492;8.474;2023-03-14T09:16:19;98468.22;;;11.85;75.79
6144;BME280;3103;49.492;8.474;2023-03-14T09:18:45;98472.50;;;11.86;75.53
6144;BME280;3103;49.492;8.474;2023-03-14T09:21:12;98459.41;;;11.80;76.19
6144;BME280;3103;49.492;8.474;2023-03-14T09:23:39;98472.06;;;11.79;76.03
6144;BME280;3103;49.492;8.474;2023-03-14T09:26:07;98472.13;;;12.07;76.34
6144;BME280;3103;49.492;8.474;2023-03-14T09:28:33;98477.91;;;12.00;76.75
6144;BME280;3103;49.492;8.474;2023-03-14T09:31:07;98461.81;;;11.63;77.59
6144;BME280;3103;49.492;8.474;2023-03-14T09:33:35;98466.75;;;11.74;77.39
6144;BME280;3103;49.492;8.474;2023-03-14T09:36:02;98471.53;;;11.77;77.93
6144;BME280;3103;49.492;8.474;2023-03-14T09:38:29;98464.72;;;11.66;78.83
6144;BME280;3103;49.492;8.474;2023-03-14T09:40:58;98470.09;;;11.85;78.59
6144;BME280;3103;49.492;8.474;2023-03-14T09:43:26;98466.31;;;11.86;78.03
6144;BME280;3103;49.492;8.474;2023-03-14T09:45:55;98466.44;;;11.76;78.48
6144;BME280;3103;49.492;8.474;2023-03-14T09:48:26;98466.69;;;11.60;79.03
6144;BME280;3103;49.492;8.474;2023-03-14T09:50:55;98461.88;;;11.76;79.28
6144;BME280;3103;49.492;8.474;2023-03-14T09:53:42;98472.50;;;11.68;80.22
6144;BME280;3103;49.492;8.474;2023-03-14T09:56:35;98469.69;;;11.59;81.18
6144;BME280;3103;49.492;8.474;2023-03-14T09:59:05;98462.91;;;11.80;80.81
6144;BME280;3103;49.492;8.474;2023-03-14T10:01:36;98478.31;;;11.75;81.58
6144;BME280;3103;49.492;8.474;2023-03-14T10:04:13;98467.88;;;11.54;82.85
6144;BME280;3103;49.492;8.474;2023-03-14T10:06:41;98479.09;;;11.43;83.14
6144;BME280;3103;49.492;8.474;2023-03-14T10:09:19;98478.97;;;11.67;83.09
6144;BME280;3103;49.492;8.474;2023-03-14T10:11:55;98472.09;;;11.60;82.99
6144;BME280;3103;49.492;8.474;2023-03-14T10:14:33;98473.28;;;11.87;82.96
6144;BME280;3103;49.492;8.474;2023-03-14T10:17:12;98477.16;;;11.81;82.99
6144;BME280;3103;49.492;8.474;2023-03-14T10:19:57;98476.59;;;11.84;83.24
6144;BME280;3103;49.492;8.474;2023-03-14T10:22:29;98468.44;;;11.70;83.62
6144;BME280;3103;49.492;8.474;2023-03-14T10:25:01;98481.19;;;11.78;84.41
6144;BME280;3103;49.492;8.474;2023-03-14T10:27:34;98480.63;;;11.81;85.13
6144;BME280;3103;49.492;8.474;2023-03-14T10:30:27;98470.50;;;11.59;85.04
6144;BME280;3103;49.492;8.474;2023-03-14T10:32:54;98472.38;;;11.59;85.88
6144;BME280;3103;49.492;8.474;2023-03-14T10:35:22;98475.00;;;11.45;86.26
6144;BME280;3103;49.492;8.474;2023-03-14T10:37:54;98471.78;;;11.62;86.30
6144;BME280;3103;49.492;8.474;2023-03-14T10:40:27;98475.06;;;11.59;86.07
6144;BME280;3103;49.492;8.474;2023-03-14T10:42:55;98475.91;;;11.73;86.50
6144;BME280;3103;49.492;8.474;2023-03-14T10:45:28;98473.28;;;11.68;85.73
6144;BME280;3103;49.492;8.474;2023-03-14T10:47:59;98481.44;;;11.82;86.45
6144;BME280;3103;49.492;8.474;2023-03-14T10:50:28;98473.88;;;11.65;87.57
6144;BME280;3103;49.492;8.474;2023-03-14T10:52:57;98474.88;;;11.55;89.18
6144;BME280;3103;49.492;8.474;2023-03-14T10:55:40;98485.75;;;11.45;89.35
6144;BME280;3103;49.492;8.474;2023-03-14T10:58:25;98474.50;;;11.43;90.67
6144;BME280;3103;49.492;8.474;2023-03-14T11:01:06;98478.66;;;11.36;91.14
6144;BME280;3103;49.492;8.474;2023-03-14T11:03:42;98484.75;;;11.41;92.65
6144;BME280;3103;49.492;8.474;2023-03-14T11:06:33;98491.28;;;11.35;93.55
6144;BME280;3103;49.492;8.474;2023-03-14T11:09:12;98490.28;;;11.31;93.20
6144;BME280;3103;49.492;8.474;2023-03-14T11:11:45;98496.81;;;11.44;93.49
6144;BME280;3103;49.492;8.474;2023-03-14T11:14:30;98491.28;;;11.35;93.45
6144;BME280;3103;49.492;8.474;2023-03-14T11:17:20;98498.63;;;11.29;94.19
6144;BME280;3103;49.492;8.474;2023-03-14T11:20:13;98508.34;;;11.25;93.95
6144;BME280;3103;49.492;8.474;2023-03-14T11:22:50;98504.66;;;11.21;94.54
6144;BME280;3103;49.492;8.474;2023-03-14T11:28:09;98513.00;;;11.20;96.07
6144;BME280;3103;49.492;8.474;2023-03-14T11:30:50;98516.63;;;11.10;96.97
6144;BME280;3103;49.492;8.474;2023-03-14T11:33:56;98525.97;;;10.94;98.02
6144;BME280;3103;49.492;8.474;2023-03-14T11:36:21;98524.97;;;10.90;97.96
6144;BME280;3103;49.492;8.474;2023-03-14T11:38:55;98536.50;;;10.90;99.46
6144;BME280;3103;49.492;8.474;2023-03-14T11:44:00;98545.19;;;10.82;98.42
6144;BME280;3103;49.492;8.474;2023-03-14T11:46:54;98566.75;;;10.77;97.74
6144;BME280;3103;49.492;8.474;2023-03-14T11:49:32;98574.88;;;10.72;96.62
6144;BME280;3103;49.492;8.474;2023-03-14T11:52:08;98591.09;;;10.86;96.79
6144;BME280;3103;49.492;8.474;2023-03-14T11:57:40;98620.19;;;10.79;89.24
6144;BME280;3103;49.492;8.474;2023-03-14T12:00:18;98637.00;;;10.89;88.22
6144;BME280;3103;49.492;8.474;2023-03-14T12:02:54;98650.66;;;10.93;86.62
6144;BME280;3103;49.492;8.474;2023-03-14T12:05:31;98668.25;;;10.80;84.85
6144;BME280;3103;49.492;8.474;2023-03-14T12:10:38;98689.28;;;10.73;83.17
6144;BME280;3103;49.492;8.474;2023-03-14T12:13:10;98706.41;;;10.48;82.92
6144;BME280;3103;49.492;8.474;2023-03-14T12:15:40;98707.44;;;10.52;83.59
6144;BME280;3103;49.492;8.474;2023-03-14T12:18:35;98739.13;;;10.50;84.49
6144;BME280;3103;49.492;8.474;2023-03-14T12:21:11;98760.03;;;10.58;83.93
6144;BME280;3103;49.492;8.474;2023-03-14T12:26:17;98758.91;;;10.64;84.01
6144;BME280;3103;49.492;8.474;2023-03-14T12:49:47;98840.69;;;10.38;71.86
6144;BME280;3103;49.492;8.474;2023-03-14T12:52:29;98841.13;;;10.55;70.86
6144;BME280;3103;49.492;8.474;2023-03-14T12:57:40;98860.59;;;10.32;72.30
6144;BME280;3103;49.492;8.474;2023-03-14T13:00:17;98869.75;;;10.31;73.79
6144;BME280;3103;49.492;8.474;2023-03-14T13:02:46;98857.69;;;10.13;74.21
6144;BME280;3103;49.492;8.474;2023-03-14T13:05:20;98875.78;;;9.87;72.60
6144;BME280;3103;49.492;8.474;2023-03-14T13:10:22;98890.16;;;10.11;72.82
6144;BME280;3103;49.492;8.474;2023-03-14T13:13:14;98903.66;;;9.81;71.10
6144;BME280;3103;49.492;8.474;2023-03-14T13:15:44;98900.94;;;9.96;70.17
6144;BME280;3103;49.492;8.474;2023-03-14T13:18:24;98914.84;;;10.19;69.02
6144;BME280;3103;49.492;8.474;2023-03-14T13:20:56;98921.25;;;10.43;68.65
6144;BME280;3103;49.492;8.474;2023-03-14T13:23:30;98939.75;;;10.45;65.82
6144;BME280;3103;49.492;8.474;2023-03-14T13:25:59;98941.31;;;10.56;64.62
6144;BME280;3103;49.492;8.474;2023-03-14T13:28:27;98936.00;;;10.40;63.77
6144;BME280;3103;49.492;8.474;2023-03-14T13:30:59;98945.41;;;10.38;62.29
6144;BME280;3103;49.492;8.474;2023-03-14T13:33:26;98956.09;;;10.58;62.32
6144;BME280;3103;49.492;8.474;2023-03-14T13:36:05;98952.06;;;10.51;61.61
6144;BME280;3103;49.492;8.474;2023-03-14T13:38:35;98982.91;;;10.63;60.96
6144;BME280;3103;49.492;8.474;2023-03-14T13:41:06;98981.59;;;10.61;59.88
6144;BME280;3103;49.492;8.474;2023-03-14T13:43:40;98989.34;;;10.73;60.16
6144;BME280;3103;49.492;8.474;2023-03-14T13:46:16;99004.69;;;10.52;59.72
6144;BME280;3103;49.492;8.474;2023-03-14T13:48:49;99007.69;;;10.45;59.28
6144;BME280;3103;49.492;8.474;2023-03-14T13:51:18;99021.91;;;10.40;57.61
6144;BME280;3103;49.492;8.474;2023-03-14T13:53:53;99036.69;;;10.18;55.15
6144;BME280;3103;49.492;8.474;2023-03-14T13:56:23;99046.91;;;10.16;55.08
6144;BME280;3103;49.492;8.474;2023-03-14T13:58:51;99059.78;;;10.24;53.90
6144;BME280;3103;49.492;8.474;2023-03-14T14:01:32;99069.47;;;10.15;55.79
6144;BME280;3103;49.492;8.474;2023-03-14T14:04:09;99076.13;;;10.12;55.14
6144;BME280;3103;49.492;8.474;2023-03-14T14:06:46;99081.25;;;10.03;53.59
6144;BME280;3103;49.492;8.474;2023-03-14T14:09:24;99079.13;;;10.31;51.84
6144;BME280;3103;49.492;8.474;2023-03-14T14:12:05;99093.34;;;10.26;52.04
6144;BME280;3103;49.492;8.474;2023-03-14T14:14:49;99083.91;;;10.64;51.06
6144;BME280;3103;49.492;8.474;2023-03-14T14:17:22;99103.69;;;10.94;50.31
6144;BME280;3103;49.492;8.474;2023-03-14T14:19:50;99107.00;;;10.65;49.50
6144;BME280;3103;49.492;8.474;2023-03-14T14:22:19;99105.91;;;10.66;49.13
6144;BME280;3103;49.492;8.474;2023-03-14T14:24:46;99105.59;;;10.88;47.42
6144;BME280;3103;49.492;8.474;2023-03-14T14:27:17;99104.72;;;11.13;46.27
6144;BME280;3103;49.492;8.474;2023-03-14T14:29:57;99107.03;;;11.40;44.49
6144;BME280;3103;49.492;8.474;2023-03-14T14:32:25;99112.28;;;11.60;45.09
6144;BME280;3103;49.492;8.474;2023-03-14T14:37:24;99132.56;;;11.38;43.88
6144;BME280;3103;49.492;8.474;2023-03-14T14:39:56;99128.47;;;11.50;43.51
6144;BME280;3103;49.492;8.474;2023-03-14T14:42:27;99143.56;;;11.46;42.39
6144;BME280;3103;49.492;8.474;2023-03-14T14:44:57;99157.25;;;11.50;42.12